Time;durP1;ratioP1;P1;durP2;ratioP2;P2;SDS_P1;SDS_P2;PMS_P1;PMS_P2;Temp;Humidity;BMP_temperature;BMP_pressure;BME280_temperature;BME280_humidity;BME280_pressure;Samples;Min_cycle;Max_cycle;Signal;HPM_P1;HPM_P2
2021/05/12 00:01:50;;;;;;;14.27;7.60;;;;;;;18.43;39.01;97595.44;5070237;28;20044;-71
2021/05/12 00:04:15;;;;;;;13.82;8.07;;;;;;;18.39;38.97;97599.31;5071067;28;20841;-72
2021/05/12 00:06:41;;;;;;;10.73;7.00;;;;;;;18.34;39.08;97599.63;5071212;28;20078;-71
2021/05/12 00:09:06;;;;;;;9.95;6.13;;;;;;;18.28;39.00;97599.94;5070979;28;20474;-71
2021/05/12 00:11:31;;;;;;;10.05;5.97;;;;;;;18.22;39.26;97606.13;5070909;28;20047;-71
2021/05/12 00:13:57;;;;;;;11.80;5.88;;;;;;;18.14;39.49;97606.00;5071037;28;20120;-71
2021/05/12 00:16:22;;;;;;;9.75;5.45;;;;;;;18.10;39.71;97605.16;5070755;28;20036;-71
2021/05/12 00:18:48;;;;;;;11.00;6.00;;;;;;;18.05;39.74;97611.00;5070446;28;20446;-71
2021/05/12 00:21:25;;;;;;;14.48;5.80;;;;;;;17.98;39.94;97594.97;5070511;28;20501;-71
2021/05/12 00:24:00;;;;;;;13.63;5.45;;;;;;;17.94;39.87;97596.09;5072574;28;20031;-71
2021/05/12 00:26:37;;;;;;;10.93;5.43;;;;;;;17.88;40.09;97589.22;5075001;28;20024;-71
2021/05/12 00:29:12;;;;;;;12.05;5.35;;;;;;;17.85;40.24;97594.34;5074759;28;20025;-71
2021/05/12 00:31:37;;;;;;;10.75;5.50;;;;;;;17.82;40.63;97597.06;5075061;28;20086;-71
2021/05/12 00:34:04;;;;;;;9.57;5.53;;;;;;;17.77;40.54;97589.81;5074681;28;20467;-71
2021/05/12 00:36:29;;;;;;;10.98;5.80;;;;;;;17.73;40.43;97585.38;5074530;28;20017;-71
2021/05/12 00:38:57;;;;;;;9.85;5.70;;;;;;;17.72;40.57;97579.03;5074842;28;20086;-72
2021/05/12 00:41:23;;;;;;;10.35;5.65;;;;;;;17.68;40.74;97578.94;5074546;28;20021;-71
2021/05/12 00:43:48;;;;;;;11.00;5.35;;;;;;;17.67;40.59;97576.56;5070596;28;20024;-71
2021/05/12 00:46:14;;;;;;;9.32;5.45;;;;;;;17.64;40.48;97578.06;5072772;28;20105;-71
2021/05/12 00:48:39;;;;;;;9.90;5.57;;;;;;;17.60;40.68;97574.41;5074447;28;20489;-72
2021/05/12 00:51:06;;;;;;;8.68;5.57;;;;;;;17.58;40.86;97581.50;5074568;28;20103;-71
2021/05/12 00:53:32;;;;;;;10.25;5.45;;;;;;;17.54;40.69;97573.91;5074439;28;20091;-71
2021/05/12 00:55:57;;;;;;;8.80;5.45;;;;;;;17.49;40.67;97582.53;5074221;28;20060;-71
2021/05/12 00:58:23;;;;;;;12.32;6.43;;;;;;;17.43;40.90;97572.88;5074423;28;20437;-71
2021/05/12 01:00:48;;;;;;;10.60;6.18;;;;;;;17.39;41.03;97577.53;5073539;28;20152;-72
2021/05/12 01:03:13;;;;;;;11.63;5.65;;;;;;;17.34;41.09;97569.50;5073887;28;20082;-71
2021/05/12 01:05:51;;;;;;;11.15;6.35;;;;;;;17.26;40.92;97565.78;5074042;28;20111;-71
2021/05/12 01:08:18;;;;;;;11.05;6.07;;;;;;;17.16;41.40;97569.13;5071485;28;20496;-71
2021/05/12 01:10:43;;;;;;;10.65;6.95;;;;;;;17.12;41.49;97566.28;5074105;28;20028;-71
2021/05/12 01:13:11;;;;;;;10.98;6.28;;;;;;;17.07;41.99;97566.56;5073860;28;20108;-72
2021/05/12 01:15:36;;;;;;;10.13;6.63;;;;;;;17.04;41.77;97564.53;5073768;28;20020;-71
2021/05/12 01:18:16;;;;;;;13.02;7.13;;;;;;;16.96;41.70;97564.34;5073866;28;20474;-71
2021/05/12 01:20:57;;;;;;;11.80;7.13;;;;;;;16.94;42.15;97561.09;5073568;28;20028;-72
2021/05/12 01:23:26;;;;;;;13.00;7.00;;;;;;;16.90;42.24;97559.44;5072305;28;20024;-71
2021/05/12 01:25:53;;;;;;;13.07;7.72;;;;;;;16.86;42.15;97562.13;5073568;28;20027;-71
2021/05/12 01:28:21;;;;;;;14.25;7.70;;;;;;;16.84;42.27;97558.09;5073892;28;20074;-72
2021/05/12 01:30:58;;;;;;;12.32;7.60;;;;;;;16.81;42.72;97559.63;5080253;28;20428;-71
2021/05/12 01:33:24;;;;;;;14.18;7.85;;;;;;;16.81;42.70;97560.41;5064669;28;20028;-71
2021/05/12 01:35:49;;;;;;;13.35;8.00;;;;;;;16.76;42.41;97557.94;5072278;28;20020;-72
2021/05/12 01:38:15;;;;;;;11.40;7.57;;;;;;;16.67;42.97;97558.13;5073854;28;20100;-71
2021/05/12 01:40:40;;;;;;;13.75;7.45;;;;;;;16.60;42.55;97557.16;5074962;28;20023;-71
2021/05/12 01:43:06;;;;;;;12.00;7.68;;;;;;;16.55;42.87;97551.88;5073254;28;20021;-71
2021/05/12 01:45:31;;;;;;;16.13;8.50;;;;;;;16.50;43.54;97555.75;5076519;28;20361;-71
2021/05/12 01:47:57;;;;;;;15.80;9.23;;;;;;;16.46;43.34;97552.09;5083558;28;20082;-72
2021/05/12 01:50:22;;;;;;;14.48;7.63;;;;;;;16.46;43.37;97546.56;5075537;28;20029;-71
2021/05/12 01:52:47;;;;;;;15.93;8.68;;;;;;;16.43;43.65;97553.59;5075509;28;20382;-72
2021/05/12 01:55:15;;;;;;;16.52;8.25;;;;;;;16.39;43.55;97544.38;5074312;28;20040;-71
2021/05/12 01:57:44;;;;;;;15.60;8.90;;;;;;;16.37;43.80;97546.72;5090816;28;20024;-71
2021/05/12 02:00:40;;;;;;;16.52;9.15;;;;;;;16.35;43.69;97549.03;5091365;28;20047;-71
2021/05/12 02:03:09;;;;;;;16.92;9.18;;;;;;;16.36;43.86;97547.88;5072748;28;20044;-72
2021/05/12 02:05:36;;;;;;;17.90;9.00;;;;;;;16.35;44.21;97544.31;5072764;28;20027;-71
2021/05/12 02:08:04;;;;;;;16.75;9.27;;;;;;;16.36;44.35;97534.84;5073793;28;20433;-71
2021/05/12 02:10:29;;;;;;;18.17;9.85;;;;;;;16.36;44.70;97537.63;5075189;28;20028;-72
2021/05/12 02:12:56;;;;;;;16.42;10.43;;;;;;;16.38;44.59;97540.00;5074095;28;20029;-71
2021/05/12 02:15:22;;;;;;;16.95;10.43;;;;;;;16.36;44.56;97534.84;5074950;28;20024;-71
2021/05/12 02:17:47;;;;;;;19.65;10.85;;;;;;;16.35;44.92;97535.19;5082986;28;20020;-71
2021/05/12 02:20:15;;;;;;;18.85;10.93;;;;;;;16.32;44.91;97538.66;5073628;28;20414;-71
2021/05/12 02:22:40;;;;;;;20.00;10.88;;;;;;;16.29;45.17;97534.66;5074406;28;20042;-71
2021/05/12 02:25:08;;;;;;;18.10;10.77;;;;;;;16.25;45.15;97530.22;5073562;28;20025;-71
2021/05/12 02:27:33;;;;;;;16.85;10.30;;;;;;;16.26;45.63;97531.81;5073327;28;20467;-71
2021/05/12 02:30:02;;;;;;;17.83;11.18;;;;;;;16.22;45.86;97534.47;5073641;28;20028;-72
2021/05/12 02:32:28;;;;;;;16.67;10.90;;;;;;;16.22;45.72;97528.94;5073657;28;20028;-72
2021/05/12 02:34:55;;;;;;;19.20;10.88;;;;;;;16.16;45.89;97520.13;5073847;28;20028;-71
2021/05/12 02:37:20;;;;;;;16.90;10.10;;;;;;;16.12;46.31;97524.75;5076608;28;20363;-71
2021/05/12 02:39:46;;;;;;;26.25;11.02;;;;;;;16.06;46.27;97518.69;5093919;28;20047;-71
2021/05/12 02:42:11;;;;;;;18.00;10.35;;;;;;;16.06;46.18;97526.19;5076580;28;20437;-71
2021/05/12 02:44:37;;;;;;;18.27;10.85;;;;;;;16.08;46.29;97521.09;5089466;28;20031;-72
2021/05/12 02:47:02;;;;;;;22.65;10.90;;;;;;;16.06;46.13;97513.16;5093843;28;20040;-72
2021/05/12 02:49:28;;;;;;;19.05;9.95;;;;;;;16.07;46.47;97522.25;5093667;28;20027;-72
2021/05/12 02:51:53;;;;;;;18.38;10.73;;;;;;;16.09;46.70;97516.38;5093499;28;20107;-72
2021/05/12 02:54:19;;;;;;;18.00;10.98;;;;;;;16.07;46.65;97517.53;5091326;28;20028;-72
2021/05/12 02:56:44;;;;;;;19.35;10.48;;;;;;;16.06;46.64;97518.69;5084630;28;20036;-72
2021/05/12 02:59:11;;;;;;;21.65;10.82;;;;;;;16.03;46.49;97515.81;5093726;28;20073;-72
2021/05/12 03:01:36;;;;;;;21.00;11.30;;;;;;;16.02;46.86;97516.97;5091320;28;20097;-72
2021/05/12 03:04:02;;;;;;;20.08;10.95;;;;;;;16.01;46.91;97510.66;5093492;28;20020;-72
2021/05/12 03:06:27;;;;;;;19.23;11.02;;;;;;;15.99;46.93;97521.28;5082742;28;20025;-71
2021/05/12 03:08:53;;;;;;;21.92;11.00;;;;;;;15.97;47.16;97520.00;5071747;28;20031;-71
2021/05/12 03:11:18;;;;;;;21.73;11.50;;;;;;;15.96;47.29;97518.41;5072600;28;20107;-72
2021/05/12 03:13:43;;;;;;;21.90;12.00;;;;;;;15.92;47.14;97519.09;5073058;28;20017;-72
2021/05/12 03:16:09;;;;;;;20.98;11.93;;;;;;;15.91;47.90;97525.00;5072831;28;20031;-72
2021/05/12 03:18:34;;;;;;;21.20;11.48;;;;;;;15.89;47.93;97521.78;5072852;28;20033;-71
2021/05/12 03:21:00;;;;;;;19.48;11.85;;;;;;;15.85;48.13;97521.69;5071791;28;20033;-72
2021/05/12 03:23:25;;;;;;;20.35;11.57;;;;;;;15.82;47.84;97525.16;5072990;28;20024;-71
2021/05/12 03:25:50;;;;;;;23.48;11.93;;;;;;;15.82;48.35;97511.31;5086318;28;20150;-72
2021/05/12 03:28:16;;;;;;;22.23;12.15;;;;;;;15.84;48.01;97522.84;5093373;28;20078;-71
2021/05/12 03:30:41;;;;;;;19.65;12.65;;;;;;;15.81;48.13;97514.44;5088683;28;20028;-71
2021/05/12 03:33:09;;;;;;;18.92;11.98;;;;;;;15.83;48.19;97520.41;5073017;28;20017;-71
2021/05/12 03:35:37;;;;;;;20.17;11.90;;;;;;;15.80;48.35;97519.16;5072857;28;20391;-71
2021/05/12 03:38:03;;;;;;;19.58;11.45;;;;;;;15.78;48.66;97518.72;5073945;28;20035;-71
2021/05/12 03:40:29;;;;;;;20.33;11.63;;;;;;;15.76;48.64;97518.28;5088788;28;20039;-71
2021/05/12 03:42:56;;;;;;;22.15;11.88;;;;;;;15.76;48.76;97521.03;5075737;28;20025;-72
2021/05/12 03:45:21;;;;;;;18.70;11.82;;;;;;;15.73;49.08;97517.00;5072590;28;20470;-72
2021/05/12 03:47:48;;;;;;;18.90;11.25;;;;;;;15.73;48.54;97514.22;5072648;28;20024;-71
2021/05/12 03:50:13;;;;;;;19.42;11.52;;;;;;;15.73;48.75;97511.47;5071348;28;20021;-71
2021/05/12 03:52:39;;;;;;;20.67;11.98;;;;;;;15.74;48.93;97517.81;5072346;28;20036;-70
2021/05/12 03:55:07;;;;;;;20.48;11.50;;;;;;;15.76;48.87;97510.75;5072685;28;20028;-71
2021/05/12 03:57:33;;;;;;;17.67;11.57;;;;;;;15.77;49.30;97514.34;5072118;28;20036;-71
2021/05/12 03:59:58;;;;;;;23.45;11.98;;;;;;;15.83;49.32;97512.94;5072443;28;20513;-71
2021/05/12 04:02:24;;;;;;;22.70;12.02;;;;;;;15.86;49.13;97514.19;5073203;28;20398;-71
2021/05/12 04:04:49;;;;;;;21.15;12.40;;;;;;;15.90;49.37;97506.81;5076804;28;20028;-72
2021/05/12 04:07:14;;;;;;;21.25;12.10;;;;;;;15.97;49.22;97514.47;5074838;28;20028;-72
2021/05/12 04:09:40;;;;;;;19.02;11.63;;;;;;;16.04;49.55;97511.91;5081096;28;20029;-71
2021/05/12 04:12:05;;;;;;;19.05;11.15;;;;;;;16.07;49.64;97517.53;5072492;28;20075;-71
2021/05/12 04:14:31;;;;;;;20.33;11.95;;;;;;;16.13;49.22;97515.31;5073358;28;20029;-72
2021/05/12 04:16:56;;;;;;;21.85;12.05;;;;;;;16.16;49.60;97509.06;5071573;28;20031;-71
2021/05/12 04:19:22;;;;;;;20.90;11.93;;;;;;;16.20;49.59;97514.66;5072309;28;20028;-71
2021/05/12 04:21:47;;;;;;;22.77;12.13;;;;;;;16.22;49.51;97515.94;5076883;28;20059;-72
2021/05/12 04:24:12;;;;;;;19.30;12.15;;;;;;;16.27;49.32;97522.38;5072640;28;20024;-71
2021/05/12 04:26:38;;;;;;;25.65;12.52;;;;;;;16.29;49.55;97511.75;5072016;28;20033;-71
2021/05/12 04:29:05;;;;;;;21.45;12.35;;;;;;;16.31;49.77;97517.69;5071164;28;20100;-71
2021/05/12 04:31:34;;;;;;;20.08;11.65;;;;;;;16.35;49.62;97505.56;5063829;28;20450;-72
2021/05/12 04:34:00;;;;;;;21.15;11.65;;;;;;;16.37;49.55;97507.97;5051895;28;20036;-72
2021/05/12 04:36:26;;;;;;;18.50;10.88;;;;;;;16.37;50.06;97511.56;5052411;28;20025;-71
2021/05/12 04:38:51;;;;;;;22.88;11.65;;;;;;;16.38;49.94;97506.81;5051359;28;20032;-71
2021/05/12 04:41:18;;;;;;;22.40;11.25;;;;;;;16.43;50.12;97500.22;5062760;28;20032;-72
2021/05/12 04:43:45;;;;;;;18.50;10.77;;;;;;;16.53;50.44;97499.66;5089923;28;20130;-71
2021/05/12 04:46:11;;;;;;;23.42;12.25;;;;;;;16.57;50.22;97505.28;5090061;28;20366;-71
2021/05/12 04:48:36;;;;;;;19.05;11.07;;;;;;;16.62;50.62;97500.25;5092545;28;20035;-71
2021/05/12 04:51:02;;;;;;;16.65;10.57;;;;;;;16.70;50.06;97500.44;5090597;28;20024;-71
2021/05/12 04:53:27;;;;;;;17.80;10.90;;;;;;;16.77;50.08;97506.13;5091349;28;20028;-71
2021/05/12 04:55:53;;;;;;;17.63;10.38;;;;;;;16.83;50.34;97499.16;5091828;28;20031;-71
2021/05/12 04:58:20;;;;;;;17.98;10.70;;;;;;;16.91;50.67;97492.59;5091595;28;20107;-71
2021/05/12 05:00:45;;;;;;;18.52;11.00;;;;;;;16.98;50.43;97503.06;5090471;28;20036;-71
2021/05/12 05:03:11;;;;;;;20.85;11.00;;;;;;;17.04;50.23;97501.63;5092256;28;20028;-71
2021/05/12 05:05:36;;;;;;;18.60;10.65;;;;;;;17.11;50.56;97495.44;5092184;28;20107;-71
2021/05/12 05:08:01;;;;;;;15.70;10.00;;;;;;;17.16;50.24;97500.69;5091201;28;20104;-71
2021/05/12 05:10:27;;;;;;;16.42;9.88;;;;;;;17.21;50.36;97510.66;5087132;28;20021;-71
2021/05/12 05:12:52;;;;;;;17.08;9.68;;;;;;;17.31;50.21;97498.22;5074240;28;20060;-71
2021/05/12 05:15:18;;;;;;;18.27;9.80;;;;;;;17.40;50.33;97502.38;5075536;28;20363;-70
2021/05/12 05:17:43;;;;;;;17.17;9.88;;;;;;;17.47;50.21;97496.16;5076637;28;20479;-71
2021/05/12 05:20:13;;;;;;;19.85;9.48;;;;;;;17.55;50.43;97508.16;5079308;28;20024;-71
2021/05/12 05:22:39;;;;;;;16.20;10.13;;;;;;;17.65;50.54;97504.03;5075103;28;20045;-70
2021/05/12 05:25:06;;;;;;;20.95;10.50;;;;;;;17.70;50.49;97504.50;5093810;28;20085;-71
2021/05/12 05:27:31;;;;;;;21.50;11.13;;;;;;;17.76;50.33;97510.56;5095361;28;20027;-71
2021/05/12 05:29:56;;;;;;;18.05;10.57;;;;;;;17.85;50.47;97508.34;5085730;28;20028;-71
2021/05/12 05:32:22;;;;;;;17.05;10.82;;;;;;;17.94;50.45;97513.66;5074878;28;20028;-71
2021/05/12 05:34:48;;;;;;;17.35;11.38;;;;;;;17.98;50.39;97508.97;5075455;28;20441;-71
2021/05/12 05:37:14;;;;;;;15.55;9.40;;;;;;;18.04;50.50;97514.25;5075303;28;20112;-70
2021/05/12 05:39:39;;;;;;;17.38;10.32;;;;;;;18.07;50.71;97511.56;5064539;28;20108;-71
2021/05/12 05:42:07;;;;;;;17.30;10.18;;;;;;;18.16;50.38;97514.06;5055066;28;20471;-71
2021/05/12 05:44:33;;;;;;;19.65;10.05;;;;;;;18.24;50.57;97506.66;5055208;28;20110;-71
2021/05/12 05:46:59;;;;;;;16.80;9.93;;;;;;;18.36;50.55;97495.38;5088349;28;20059;-71
2021/05/12 05:49:24;;;;;;;14.95;10.00;;;;;;;18.43;50.59;97501.06;5093283;28;20035;-71
2021/05/12 05:51:50;;;;;;;18.50;10.40;;;;;;;18.53;50.50;97498.81;5094060;28;20035;-71
2021/05/12 05:54:16;;;;;;;15.77;9.57;;;;;;;18.59;50.66;97498.13;5095240;28;20431;-72
2021/05/12 05:56:41;;;;;;;16.52;9.13;;;;;;;18.73;50.41;97502.28;5090784;28;20059;-72
2021/05/12 05:59:07;;;;;;;15.70;9.63;;;;;;;18.83;50.26;97496.06;5077135;28;20382;-72
2021/05/12 06:01:32;;;;;;;17.02;9.73;;;;;;;18.92;50.15;97501.38;5092728;28;20052;-71
2021/05/12 06:03:57;;;;;;;16.65;8.85;;;;;;;19.03;50.42;97504.31;5095159;28;20080;-72
2021/05/12 06:06:23;;;;;;;16.50;8.85;;;;;;;19.16;49.88;97499.34;5093270;28;20040;-72
2021/05/12 06:08:48;;;;;;;12.63;8.10;;;;;;;19.26;49.89;97507.00;5070788;28;20028;-71
2021/05/12 06:11:13;;;;;;;13.32;8.15;;;;;;;19.34;49.72;97500.38;5054203;28;20028;-72
2021/05/12 06:13:39;;;;;;;18.60;8.52;;;;;;;19.49;49.46;97503.31;5066989;28;20042;-72
2021/05/12 06:16:05;;;;;;;15.18;8.80;;;;;;;19.58;49.67;97500.22;5074379;28;20104;-72
2021/05/12 06:18:30;;;;;;;13.88;7.90;;;;;;;19.70;49.38;97499.19;5074276;28;20024;-71
2021/05/12 06:20:56;;;;;;;18.73;8.48;;;;;;;19.80;48.97;97490.13;5073620;28;20494;-72
2021/05/12 06:23:22;;;;;;;15.05;8.27;;;;;;;19.89;49.38;97490.66;5074231;28;20024;-72
2021/05/12 06:25:50;;;;;;;15.70;8.35;;;;;;;19.97;49.17;97494.28;5061621;28;20060;-72
2021/05/12 06:28:16;;;;;;;17.42;8.05;;;;;;;20.03;49.13;97498.31;5054396;28;20024;-72
2021/05/12 06:30:48;;;;;;;14.50;8.30;;;;;;;20.14;49.06;97497.63;5058593;28;20469;-72
2021/05/12 06:33:13;;;;;;;12.60;7.97;;;;;;;20.23;48.80;97490.56;5073646;28;20681;-71
2021/05/12 06:35:39;;;;;;;11.23;7.15;;;;;;;20.36;48.75;97490.28;5072613;28;20035;-71
2021/05/12 06:38:04;;;;;;;13.13;7.43;;;;;;;20.49;48.48;97485.19;5072728;28;20107;-71
2021/05/12 06:40:29;;;;;;;13.35;8.23;;;;;;;20.59;48.89;97486.44;5070939;28;20421;-71
2021/05/12 06:42:55;;;;;;;11.63;7.40;;;;;;;20.65;48.57;97480.16;5073042;28;20036;-71
2021/05/12 06:45:20;;;;;;;15.82;8.45;;;;;;;20.74;48.19;97482.56;5073346;28;20069;-71
2021/05/12 06:47:53;;;;;;;14.80;7.82;;;;;;;20.83;48.22;97479.47;5056802;28;20056;-71
2021/05/12 06:50:19;;;;;;;13.25;8.00;;;;;;;20.91;48.15;97481.13;5066399;28;20689;-69
2021/05/12 06:52:44;;;;;;;10.85;7.32;;;;;;;20.99;47.69;97470.78;5072944;28;20028;-72
2021/05/12 06:55:10;;;;;;;13.82;8.27;;;;;;;21.07;47.61;97474.44;5073248;28;20117;-71
2021/05/12 06:57:35;;;;;;;10.90;6.63;;;;;;;21.16;47.71;97471.28;5065234;28;20115;-72
2021/05/12 07:00:00;;;;;;;13.85;7.43;;;;;;;21.27;48.00;97469.34;5070071;28;20040;-71
2021/05/12 07:02:26;;;;;;;12.55;7.60;;;;;;;21.37;47.70;97465.00;5069134;28;20040;-71
2021/05/12 07:04:51;;;;;;;10.95;7.18;;;;;;;21.47;47.62;97472.59;5070295;28;20111;-70
2021/05/12 07:07:16;;;;;;;20.40;11.07;;;;;;;21.53;47.01;97464.66;5071463;28;20036;-69
2021/05/12 07:09:42;;;;;;;18.98;12.65;;;;;;;21.63;46.94;97465.88;5070701;28;20044;-69
2021/05/12 07:12:07;;;;;;;13.32;6.80;;;;;;;21.70;46.76;97460.31;5069455;28;20103;-69
2021/05/12 07:14:33;;;;;;;14.38;9.85;;;;;;;21.79;46.71;97466.34;5070631;28;20063;-68
2021/05/12 07:16:58;;;;;;;9.40;6.22;;;;;;;21.88;46.28;97467.94;5071058;28;20036;-69
2021/05/12 07:19:25;;;;;;;19.77;9.77;;;;;;;21.96;46.19;97461.19;5071254;28;20103;-69
2021/05/12 07:21:50;;;;;;;13.05;7.95;;;;;;;22.04;45.36;97456.41;5064949;28;20142;-71
2021/05/12 07:24:16;;;;;;;15.77;6.68;;;;;;;22.12;45.36;97458.00;5070593;28;20067;-68
2021/05/12 07:26:41;;;;;;;13.82;5.60;;;;;;;22.24;45.22;97460.38;5071840;28;20102;-69
2021/05/12 07:29:07;;;;;;;13.45;9.23;;;;;;;22.35;44.86;97454.00;5072192;28;20111;-69
2021/05/12 07:31:32;;;;;;;14.60;8.48;;;;;;;22.45;44.45;97451.22;5071860;28;20661;-69
2021/05/12 07:33:58;;;;;;;11.77;6.03;;;;;;;22.55;44.21;97449.63;5071623;28;20028;-69
2021/05/12 07:36:23;;;;;;;12.20;5.03;;;;;;;22.66;44.05;97452.41;5072180;28;20033;-69
2021/05/12 07:38:48;;;;;;;10.65;5.55;;;;;;;22.80;44.16;97451.56;5072600;28;20054;-69
2021/05/12 07:41:14;;;;;;;7.93;4.97;;;;;;;22.90;43.95;97449.94;5065625;28;20039;-70
2021/05/12 07:43:39;;;;;;;11.73;8.10;;;;;;;22.95;43.25;97443.16;5067304;28;20024;-69
2021/05/12 07:46:05;;;;;;;9.65;4.68;;;;;;;23.02;43.25;97443.91;5067534;28;20035;-70
2021/05/12 07:48:31;;;;;;;6.28;3.78;;;;;;;23.11;42.82;97454.66;5070730;28;20103;-70
2021/05/12 07:50:56;;;;;;;7.85;5.30;;;;;;;23.20;42.52;97449.44;5068060;28;20124;-70
2021/05/12 07:53:22;;;;;;;12.75;7.30;;;;;;;23.30;42.57;97449.84;5070944;28;20024;-70
2021/05/12 07:55:47;;;;;;;8.23;4.60;;;;;;;23.39;42.53;97444.59;5071720;28;20039;-70
2021/05/12 07:58:13;;;;;;;8.77;5.30;;;;;;;23.49;42.55;97445.75;5071502;28;20035;-69
2021/05/12 08:00:41;;;;;;;8.25;4.90;;;;;;;23.59;42.68;97444.09;5070295;28;20048;-70
2021/05/12 08:03:07;;;;;;;9.05;6.22;;;;;;;23.68;42.41;97441.63;5067477;28;20041;-70
2021/05/12 08:05:33;;;;;;;7.53;4.80;;;;;;;23.74;42.05;97445.59;5071775;28;20028;-69
2021/05/12 08:07:58;;;;;;;8.13;5.20;;;;;;;23.83;41.87;97442.34;5071968;28;20436;-69
2021/05/12 08:10:24;;;;;;;8.02;4.55;;;;;;;23.88;41.53;97436.31;5070173;28;20021;-70
2021/05/12 08:12:49;;;;;;;8.73;5.35;;;;;;;23.95;41.32;97443.84;5071698;28;20043;-70
2021/05/12 08:15:14;;;;;;;9.50;4.90;;;;;;;24.03;41.08;97434.22;5071109;28;20444;-71
2021/05/12 08:17:40;;;;;;;7.80;4.90;;;;;;;24.10;41.27;97432.56;5069824;28;20057;-69
2021/05/12 08:20:07;;;;;;;20.25;12.25;;;;;;;24.14;40.98;97422.94;5071722;28;20363;-68
2021/05/12 08:22:32;;;;;;;13.32;6.80;;;;;;;24.18;40.22;97426.50;5064815;28;20060;-69
2021/05/12 08:24:57;;;;;;;12.52;4.75;;;;;;;24.24;40.52;97435.28;5070499;28;20105;-69
2021/05/12 08:27:23;;;;;;;8.82;4.72;;;;;;;24.31;40.59;97423.97;5070526;28;20078;-69
2021/05/12 08:29:48;;;;;;;7.28;4.68;;;;;;;24.38;40.34;97428.75;5069743;28;20029;-69
2021/05/12 08:32:16;;;;;;;14.90;10.38;;;;;;;24.43;39.93;97421.88;5069563;28;20462;-69
2021/05/12 08:34:41;;;;;;;9.85;5.20;;;;;;;24.44;39.70;97429.88;5057175;28;20492;-69
2021/05/12 08:37:07;;;;;;;32.92;8.68;;;;;;;24.49;39.52;97428.63;5069529;28;20036;-70
2021/05/12 08:39:33;;;;;;;15.93;10.45;;;;;;;24.55;39.98;97424.16;5070156;28;20037;-70
2021/05/12 08:41:59;;;;;;;8.13;5.22;;;;;;;24.59;39.26;97419.31;5071813;28;20028;-71
2021/05/12 08:44:25;;;;;;;8.73;5.65;;;;;;;24.65;38.54;97422.47;5080047;28;20055;-69
2021/05/12 08:46:51;;;;;;;15.45;9.05;;;;;;;24.67;38.55;97414.44;5078579;28;20075;-70
2021/05/12 08:49:18;;;;;;;9.75;4.65;;;;;;;24.76;39.10;97413.94;5075311;28;20059;-69
2021/05/12 08:51:44;;;;;;;8.70;4.65;;;;;;;24.84;39.22;97406.28;5076030;28;20428;-72
2021/05/12 08:54:11;;;;;;;9.35;5.50;;;;;;;24.94;38.84;97411.75;5075819;28;20027;-69
2021/05/12 08:56:36;;;;;;;9.07;5.03;;;;;;;25.00;38.74;97411.28;5071653;28;20033;-70
2021/05/12 08:59:02;;;;;;;8.80;5.63;;;;;;;25.03;39.00;97407.66;5075357;28;20031;-69
2021/05/12 09:01:28;;;;;;;10.27;6.00;;;;;;;25.08;38.72;97407.16;5075065;28;20546;-68
2021/05/12 09:03:54;;;;;;;11.38;6.45;;;;;;;25.13;38.13;97406.69;5074541;28;20032;-69
2021/05/12 09:06:20;;;;;;;8.13;4.95;;;;;;;25.16;38.24;97397.44;5074288;28;20017;-69
2021/05/12 09:08:47;;;;;;;10.82;5.55;;;;;;;25.20;37.58;97401.00;5074510;28;20051;-69
2021/05/12 09:11:16;;;;;;;8.98;4.32;;;;;;;25.26;37.56;97392.94;5074398;28;20430;-69
2021/05/12 09:13:44;;;;;;;8.45;4.20;;;;;;;25.30;37.28;97387.25;5066459;28;20020;-69
2021/05/12 09:16:18;;;;;;;8.10;5.38;;;;;;;25.37;37.84;97390.75;5074052;28;20035;-69
2021/05/12 09:18:44;;;;;;;9.85;4.38;;;;;;;25.45;37.83;97390.69;5073706;28;20024;-70
2021/05/12 09:21:09;;;;;;;7.95;5.60;;;;;;;25.49;37.50;97391.44;5070519;28;20033;-69
2021/05/12 09:23:40;;;;;;;9.35;4.85;;;;;;;25.56;37.51;97394.16;5076712;28;20032;-69
2021/05/12 09:26:15;;;;;;;11.50;7.28;;;;;;;25.66;37.81;97392.38;5071471;28;20032;-69
2021/05/12 09:28:43;;;;;;;7.28;3.75;;;;;;;25.66;36.79;97387.59;5069582;28;20028;-68
2021/05/12 09:31:12;;;;;;;17.77;11.15;;;;;;;25.68;36.23;97387.16;5073796;28;20028;-69
2021/05/12 09:33:40;;;;;;;4.72;3.70;;;;;;;25.70;35.62;97385.50;5071142;28;20062;-68
2021/05/12 09:36:07;;;;;;;6.68;4.63;;;;;;;25.80;36.39;97380.94;5065678;28;20027;-69
2021/05/12 09:38:34;;;;;;;8.75;4.65;;;;;;;25.85;36.25;97379.66;5065194;28;20087;-69
2021/05/12 09:41:08;;;;;;;3.88;3.50;;;;;;;25.91;35.50;97380.78;5071400;28;20024;-69
2021/05/12 09:43:35;;;;;;;5.20;3.92;;;;;;;25.93;35.70;97377.53;5065339;28;20033;-68
2021/05/12 09:46:24;;;;;;;8.65;4.53;;;;;;;26.03;36.06;97373.75;5069188;28;20041;-70
2021/05/12 09:49:07;;;;;;;7.97;3.87;;;;;;;26.10;35.97;97375.63;5071591;28;20024;-69
2021/05/12 09:51:38;;;;;;;7.93;5.82;;;;;;;26.20;35.61;97368.28;5068511;28;20388;-70
2021/05/12 09:54:09;;;;;;;6.85;3.45;;;;;;;26.31;35.89;97374.50;5072471;28;20029;-70
2021/05/12 09:56:43;;;;;;;9.45;4.00;;;;;;;26.37;34.32;97372.78;5070896;28;20029;-69
2021/05/12 09:59:14;;;;;;;6.05;4.15;;;;;;;26.41;34.51;97362.25;5067915;28;20067;-69
2021/05/12 10:01:45;;;;;;;9.35;4.32;;;;;;;26.54;35.23;97358.81;5071527;28;20040;-69
2021/05/12 10:04:28;;;;;;;6.90;4.35;;;;;;;26.67;34.96;97368.22;5069971;28;20170;-69
2021/05/12 10:06:57;;;;;;;13.00;5.15;;;;;;;26.74;34.40;97359.63;5070173;28;20058;-70
2021/05/12 10:09:25;;;;;;;6.38;4.35;;;;;;;26.84;34.62;97354.25;5073286;28;20021;-69
2021/05/12 10:12:07;;;;;;;9.50;6.47;;;;;;;26.92;34.30;97358.50;5072812;28;20078;-70
2021/05/12 10:14:34;;;;;;;10.77;7.63;;;;;;;27.02;33.27;97349.06;5072615;28;20148;-71
2021/05/12 10:17:02;;;;;;;15.50;4.82;;;;;;;27.13;33.67;97353.63;5073978;28;20035;-70
2021/05/12 10:19:27;;;;;;;4.22;2.90;;;;;;;27.21;33.89;97348.66;5073635;28;20032;-70
2021/05/12 10:21:53;;;;;;;6.97;3.40;;;;;;;27.30;33.53;97346.06;5072421;28;20032;-70
2021/05/12 10:24:19;;;;;;;17.92;13.73;;;;;;;27.38;32.91;97349.50;5072993;28;20078;-70
2021/05/12 10:26:46;;;;;;;12.63;8.10;;;;;;;27.45;33.25;97360.59;5072701;28;20056;-69
2021/05/12 10:29:14;;;;;;;7.45;4.65;;;;;;;27.52;32.50;97349.16;5073048;28;20017;-69
2021/05/12 10:31:40;;;;;;;3.90;3.03;;;;;;;27.58;32.16;97350.25;5073921;28;20028;-69
2021/05/12 10:34:05;;;;;;;7.53;3.83;;;;;;;27.62;32.37;97345.31;5073599;28;20086;-69
2021/05/12 10:36:31;;;;;;;9.70;3.90;;;;;;;27.67;31.68;97344.00;5073925;28;20100;-69
2021/05/12 10:38:56;;;;;;;6.72;4.32;;;;;;;27.71;31.69;97341.09;5073950;28;20055;-69
2021/05/12 10:41:34;;;;;;;9.23;5.53;;;;;;;27.76;31.92;97338.53;5072401;28;20020;-69
2021/05/12 10:44:03;;;;;;;10.50;3.33;;;;;;;27.79;31.45;97342.50;5073729;28;20032;-70
2021/05/12 10:46:30;;;;;;;8.18;5.07;;;;;;;27.76;30.74;97332.13;5073664;28;20028;-69
2021/05/12 10:48:56;;;;;;;8.85;3.13;;;;;;;27.74;30.46;97335.38;5073534;28;20086;-69
2021/05/12 10:51:26;;;;;;;8.68;3.75;;;;;;;27.76;30.87;97337.75;5073217;28;20032;-70
2021/05/12 10:53:54;;;;;;;5.80;3.20;;;;;;;27.80;30.45;97327.19;5072676;28;20052;-69
2021/05/12 10:56:22;;;;;;;7.18;3.10;;;;;;;27.83;30.66;97336.78;5073295;28;20021;-69
2021/05/12 10:59:05;;;;;;;6.88;4.40;;;;;;;27.82;30.37;97335.19;5073623;28;20417;-70
2021/05/12 11:01:42;;;;;;;8.57;3.85;;;;;;;27.82;30.20;97326.75;5072864;28;20051;-70
2021/05/12 11:04:13;;;;;;;6.00;3.78;;;;;;;27.81;29.70;97325.97;5073588;28;20029;-70
2021/05/12 11:06:38;;;;;;;5.80;4.18;;;;;;;27.83;29.84;97329.13;5073505;28;20027;-70
2021/05/12 11:09:17;;;;;;;6.22;3.20;;;;;;;27.89;30.29;97324.56;5072479;28;20033;-70
2021/05/12 11:11:45;;;;;;;6.30;2.85;;;;;;;27.92;30.00;97323.66;5073279;28;20020;-70
2021/05/12 11:14:25;;;;;;;6.80;3.67;;;;;;;27.96;29.55;97323.56;5073286;28;20086;-70
2021/05/12 11:17:03;;;;;;;5.10;3.40;;;;;;;27.98;29.66;97323.94;5073246;28;20524;-70
2021/05/12 11:19:40;;;;;;;5.20;3.20;;;;;;;28.01;29.45;97325.88;5071817;28;20028;-69
2021/05/12 11:33:33;;;;;;;7.25;3.00;;;;;;;28.07;29.58;97300.75;5072623;28;20078;-69
2021/05/12 11:36:06;;;;;;;6.20;3.00;;;;;;;28.15;29.64;97304.19;5066207;28;20024;-69